createdAt,value
2022-12-08T00:02:29.037Z,96730.81
2022-12-08T00:05:33.443Z,96725.41
2022-12-08T00:08:37.408Z,96731.25
2022-12-08T00:11:22.789Z,96730.22
2022-12-08T00:14:08.247Z,96731.84
2022-12-08T00:16:54.549Z,96730.06
2022-12-08T00:19:40.700Z,96739.50
2022-12-08T00:22:26.461Z,96738.50
2022-12-08T00:25:12.148Z,96731.50
2022-12-08T00:27:57.957Z,96727.88
2022-12-08T00:30:44.204Z,96725.28
2022-12-08T00:33:29.726Z,96726.06
2022-12-08T00:36:16.016Z,96715.59
2022-12-08T00:39:01.845Z,96713.97
2022-12-08T00:42:05.875Z,96717.59
2022-12-08T00:44:51.729Z,96714.19
2022-12-08T00:47:37.432Z,96703.91
2022-12-08T00:50:22.957Z,96715.38
2022-12-08T00:53:08.616Z,96712.31
2022-12-08T00:55:54.039Z,96717.91
2022-12-08T00:58:39.514Z,96715.69
2022-12-08T01:01:25.314Z,96716.25
2022-12-08T01:04:15.535Z,96713.84
2022-12-08T01:07:01.249Z,96722.47
2022-12-08T01:09:46.693Z,96718.25
2022-12-08T01:12:32.219Z,96718.25
2022-12-08T01:15:17.735Z,96716.63
2022-12-08T01:18:03.333Z,96716.63
2022-12-08T01:20:48.725Z,96714.19
2022-12-08T01:23:35.028Z,96717.81
2022-12-08T01:26:20.680Z,96717.81
2022-12-08T01:29:06.291Z,96709.97
2022-12-08T01:31:52.001Z,96719.44
2022-12-08T01:34:37.729Z,96720.25
2022-12-08T01:37:22.919Z,96713.41
2022-12-08T01:40:08.731Z,96722.88
2022-12-08T01:42:54.165Z,96714.00
2022-12-08T01:45:39.619Z,96710.59
2022-12-08T01:48:27.498Z,96714.00
2022-12-08T01:51:13.716Z,96702.75
2022-12-08T01:53:59.582Z,96696.91
2022-12-08T01:56:58.258Z,96690.25
2022-12-08T01:59:50.761Z,96694.88
2022-12-08T02:02:48.978Z,96686.41
2022-12-08T02:05:39.815Z,96684.16
2022-12-08T02:08:26.442Z,96675.72
2022-12-08T02:11:12.862Z,96671.66
2022-12-08T02:13:59.954Z,96672.66
2022-12-08T02:17:13.685Z,96668.63
2022-12-08T02:20:14.575Z,96670.22
2022-12-08T02:23:32.571Z,96657.34
2022-12-08T02:27:06.086Z,96663.75
2022-12-08T02:30:18.706Z,96650.88
2022-12-08T02:33:04.455Z,96655.91
2022-12-08T02:36:05.057Z,96652.69
2022-12-08T02:39:07.740Z,96648.47
2022-12-08T02:42:18.991Z,96648.47
2022-12-08T02:45:14.881Z,96636.41
2022-12-08T02:48:00.557Z,96641.63
2022-12-08T02:50:46.254Z,96635.56
2022-12-08T02:53:33.423Z,96631.34
2022-12-08T02:56:31.613Z,96628.94
2022-12-08T02:59:33.144Z,96623.09
2022-12-08T03:02:41.903Z,96624.88
2022-12-08T03:06:00.197Z,96629.31
2022-12-08T03:08:52.281Z,96630.31
2022-12-08T03:11:49.783Z,96629.50
2022-12-08T03:14:37.036Z,96631.31
2022-12-08T03:17:26.268Z,96637.16
2022-12-08T03:20:16.396Z,96625.72
2022-12-08T03:23:08.480Z,96621.91
2022-12-08T03:26:02.015Z,96626.94
2022-12-08T03:28:47.615Z,96612.88
2022-12-08T03:31:37.079Z,96612.06
2022-12-08T03:34:26.065Z,96612.25
2022-12-08T03:37:11.806Z,96613.06
2022-12-08T03:39:57.712Z,96617.47
2022-12-08T03:42:44.211Z,96616.69
2022-12-08T03:45:30.004Z,96616.50
2022-12-08T03:48:15.283Z,96617.28
2022-12-08T03:51:00.610Z,96606.66
2022-12-08T03:53:46.396Z,96609.28
2022-12-08T03:56:34.488Z,96605.66
2022-12-08T03:59:19.781Z,96606.66
2022-12-08T04:02:05.217Z,96604.22
2022-12-08T04:04:50.911Z,96601.81
2022-12-08T04:07:36.689Z,96609.66
2022-12-08T04:10:22.374Z,96605.41
2022-12-08T04:13:07.840Z,96601.19
2022-12-08T04:15:53.242Z,96602.22
2022-12-08T04:18:38.758Z,96598.75
2022-12-08T04:21:24.278Z,96606.81
2022-12-08T04:24:09.842Z,96599.97
2022-12-08T04:26:55.537Z,96600.94
2022-12-08T04:29:41.087Z,96598.97
2022-12-08T04:32:26.894Z,96599.59
2022-12-08T04:35:12.411Z,96592.56
2022-12-08T04:37:58.088Z,96591.56
2022-12-08T04:40:43.454Z,96596.97
2022-12-08T04:43:28.888Z,96585.06
2022-12-08T04:46:14.296Z,96586.09
2022-12-08T04:48:59.837Z,96588.50
2022-12-08T04:51:45.392Z,96593.94
2022-12-08T04:54:31.035Z,96585.28
2022-12-08T04:57:16.662Z,96580.69
2022-12-08T05:00:02.933Z,96593.75
2022-12-08T05:02:48.977Z,96585.91
2022-12-08T05:05:34.346Z,96587.69
2022-12-08T05:08:20.097Z,96586.91
2022-12-08T05:11:07.919Z,96588.50
2022-12-08T05:13:53.410Z,96585.91
2022-12-08T05:16:39.722Z,96587.53
2022-12-08T05:19:25.280Z,96584.09
2022-12-08T05:22:11.034Z,96587.53
2022-12-08T05:24:56.757Z,96582.47
2022-12-08T05:27:43.222Z,96577.44
2022-12-08T05:30:29.573Z,96580.03
2022-12-08T05:33:15.824Z,96574.81
2022-12-08T05:36:01.112Z,96575.81
2022-12-08T05:38:47.344Z,96579.25
2022-12-08T05:41:33.037Z,96571.22
2022-12-08T05:44:18.589Z,96566.00
2022-12-08T05:47:04.714Z,96568.59
2022-12-08T05:49:50.222Z,96573.47
2022-12-08T05:52:35.644Z,96571.66
2022-12-08T05:55:21.071Z,96572.44
2022-12-08T05:58:08.128Z,96581.91
2022-12-08T06:00:53.595Z,96574.88
2022-12-08T06:03:38.952Z,96574.69
2022-12-08T06:06:24.871Z,96575.50
2022-12-08T06:09:10.296Z,96582.34
2022-12-08T06:11:55.979Z,96583.16
2022-12-08T06:14:41.877Z,96588.97
2022-12-08T06:17:27.203Z,96594.22
2022-12-08T06:20:12.797Z,96584.75
2022-12-08T06:22:58.577Z,96596.66
2022-12-08T06:25:44.030Z,96590.59
2022-12-08T06:28:30.960Z,96585.38
2022-12-08T06:31:22.274Z,96592.41
2022-12-08T06:34:07.789Z,96589.81
2022-12-08T06:36:52.908Z,96597.81
2022-12-08T06:39:38.407Z,96587.34
2022-12-08T06:42:42.591Z,96585.78
2022-12-08T06:45:28.338Z,96582.97
2022-12-08T06:48:14.009Z,96584.75
2022-12-08T06:51:17.153Z,96589.97
2022-12-08T06:54:02.949Z,96592.00
2022-12-08T06:56:48.444Z,96587.75
2022-12-08T06:59:34.124Z,96595.78
2022-12-08T07:02:19.611Z,96590.72
2022-12-08T07:05:05.136Z,96595.34
2022-12-08T07:07:50.776Z,96591.91
2022-12-08T07:10:36.889Z,96589.69
2022-12-08T07:13:22.746Z,96589.88
2022-12-08T07:16:10.517Z,96598.09
2022-12-08T07:18:56.147Z,96599.09
2022-12-08T07:21:41.631Z,96601.06
2022-12-08T07:24:27.107Z,96602.09
2022-12-08T07:27:12.436Z,96597.88
2022-12-08T07:29:58.059Z,96596.25
2022-12-08T07:32:43.536Z,96595.41
2022-12-08T07:35:31.061Z,96584.19
2022-12-08T07:38:16.354Z,96590.19
2022-12-08T07:41:02.220Z,96585.78
2022-12-08T07:43:48.109Z,96580.56
2022-12-08T07:46:33.464Z,96590.03
2022-12-08T07:49:19.116Z,96579.19
2022-12-08T07:52:04.786Z,96579.19
2022-12-08T07:54:50.198Z,96577.19
2022-12-08T07:57:35.555Z,96574.59
2022-12-08T08:00:21.116Z,96575.22
2022-12-08T08:03:08.999Z,96576.44
2022-12-08T08:05:55.085Z,96581.91
2022-12-08T08:08:40.352Z,96584.75
2022-12-08T08:11:25.787Z,96580.97
2022-12-08T08:14:12.440Z,96584.81
2022-12-08T08:16:58.205Z,96582.81
2022-12-08T08:19:46.206Z,96572.97
2022-12-08T08:22:32.921Z,96578.81
2022-12-08T08:25:20.132Z,96559.34
2022-12-08T08:28:06.724Z,96572.63
2022-12-08T08:30:52.418Z,96575.66
2022-12-08T08:33:39.006Z,96571.84
2022-12-08T08:36:25.527Z,96569.88
2022-12-08T08:39:10.944Z,96560.81
2022-12-08T08:41:57.797Z,96567.81
2022-12-08T08:44:45.286Z,96566.03
2022-12-08T08:47:31.143Z,96571.06
2022-12-08T08:50:16.620Z,96565.25
2022-12-08T08:53:03.025Z,96570.72
2022-12-08T08:55:50.059Z,96570.94
2022-12-08T08:58:35.356Z,96564.31
2022-12-08T09:01:23.321Z,96568.19
2022-12-08T09:04:10.338Z,96577.25
2022-12-08T09:06:56.744Z,96568.44
2022-12-08T09:09:42.467Z,96565.84
2022-12-08T09:12:28.538Z,96573.72
2022-12-08T09:15:14.005Z,96568.50
2022-12-08T09:17:59.514Z,96560.69
2022-12-08T09:20:44.977Z,96555.69
2022-12-08T09:23:35.449Z,96560.50
2022-12-08T09:26:22.621Z,96553.88
2022-12-08T09:29:08.826Z,96551.66
2022-12-08T09:31:55.364Z,96549.28
2022-12-08T09:34:41.414Z,96547.25
2022-12-08T09:37:26.772Z,96538.03
2022-12-08T09:40:17.381Z,96543.06
2022-12-08T09:43:12.460Z,96544.47
2022-12-08T09:45:58.771Z,96537.03
2022-12-08T09:48:55.655Z,96531.00
2022-12-08T09:51:44.146Z,96522.91
2022-12-08T09:54:40.030Z,96527.34
2022-12-08T09:57:26.902Z,96522.53
2022-12-08T10:00:14.574Z,96520.94
2022-12-08T10:03:00.689Z,96520.31
2022-12-08T10:06:00.348Z,96520.94
2022-12-08T10:09:12.450Z,96521.34
2022-12-08T10:12:16.351Z,96519.91
2022-12-08T10:15:41.164Z,96517.53
2022-12-08T10:18:32.419Z,96514.09
2022-12-08T10:21:22.249Z,96519.13
2022-12-08T10:24:21.068Z,96509.88
2022-12-08T10:27:12.087Z,96506.03
2022-12-08T10:29:57.726Z,96493.72
2022-12-08T10:32:51.136Z,96506.03
2022-12-08T10:35:46.471Z,96497.75
2022-12-08T10:38:37.380Z,96496.75
2022-12-08T10:41:25.026Z,96504.22
2022-12-08T10:44:10.169Z,96491.72
2022-12-08T10:46:56.141Z,96499.78
2022-12-08T10:49:41.465Z,96499.56
2022-12-08T10:52:26.885Z,96488.25
2022-12-08T10:55:20.295Z,96490.06
2022-12-08T10:58:06.082Z,96487.25
2022-12-08T11:01:01.825Z,96486.41
2022-12-08T11:03:52.502Z,96496.50
2022-12-08T11:06:40.185Z,96491.25
2022-12-08T11:09:58.362Z,96482.56
2022-12-08T11:12:44.359Z,96484.41
2022-12-08T11:15:36.620Z,96486.22
2022-12-08T11:18:39.477Z,96486.59
2022-12-08T11:21:36.537Z,96493.66
2022-12-08T11:24:30.234Z,96485.59
2022-12-08T11:27:18.790Z,96481.75
2022-12-08T11:30:18.937Z,96476.31
2022-12-08T11:33:17.736Z,96471.50
2022-12-08T11:36:09.131Z,96465.88
2022-12-08T11:39:00.961Z,96465.09
2022-12-08T11:41:47.661Z,96461.66
2022-12-08T11:44:46.398Z,96451.19
2022-12-08T11:47:37.272Z,96454.00
2022-12-08T11:50:39.125Z,96454.44
2022-12-08T11:53:43.094Z,96447.97
2022-12-08T11:56:36.599Z,96451.19
2022-12-08T11:59:44.338Z,96447.56
2022-12-08T12:02:34.524Z,96439.91
2022-12-08T12:06:38.140Z,96436.47
2022-12-08T12:09:19.683Z,96432.63
2022-12-08T12:12:39.399Z,96424.94
2022-12-08T12:16:03.126Z,96429.75
2022-12-08T12:18:59.071Z,96427.47
2022-12-08T12:21:49.443Z,96435.50
2022-12-08T12:24:38.185Z,96432.06
2022-12-08T12:27:31.058Z,96422.75
2022-12-08T12:30:24.104Z,96427.81
2022-12-08T12:33:15.737Z,96424.41
2022-12-08T12:36:09.507Z,96421.03
2022-12-08T12:39:01.711Z,96422.28
2022-12-08T12:41:55.136Z,96420.09
2022-12-08T12:44:40.860Z,96420.31
2022-12-08T12:47:57.982Z,96417.13
2022-12-08T12:50:45.937Z,96416.72
2022-12-08T12:53:34.573Z,96414.31
2022-12-08T12:56:48.518Z,96406.63
2022-12-08T12:59:55.629Z,96408.91
2022-12-08T13:02:53.182Z,96407.66
2022-12-08T13:05:52.486Z,96400.25
2022-12-08T13:08:41.819Z,96392.56
2022-12-08T13:11:27.673Z,96391.16
2022-12-08T13:14:27.883Z,96392.16
2022-12-08T13:17:18.952Z,96388.97
2022-12-08T13:20:06.738Z,96392.59
2022-12-08T13:23:13.316Z,96392.19
2022-12-08T13:26:22.110Z,96391.41
2022-12-08T13:29:15.018Z,96377.28
2022-12-08T13:32:01.575Z,96376.25
2022-12-08T13:34:56.235Z,96375.69
2022-12-08T13:37:54.829Z,96373.25
2022-12-08T13:40:42.599Z,96379.72
2022-12-08T13:43:55.808Z,96381.34
2022-12-08T13:47:17.146Z,96383.56
2022-12-08T13:57:02.492Z,96385.78
2022-12-08T13:59:35.956Z,96389.81
2022-12-08T14:02:39.553Z,96389.38
2022-12-08T14:06:10.490Z,96392.19
2022-12-08T14:09:00.379Z,96399.88
2022-12-08T14:11:58.204Z,96393.41
2022-12-08T14:15:02.581Z,96396.66
2022-12-08T14:17:55.583Z,96385.94
2022-12-08T14:21:05.029Z,96397.84
2022-12-08T14:23:46.911Z,96403.28
2022-12-08T14:26:35.385Z,96396.66
2022-12-08T14:29:48.450Z,96394.63
2022-12-08T14:32:43.447Z,96395.44
2022-12-08T14:35:34.373Z,96399.06
2022-12-08T14:38:22.021Z,96388.81
2022-12-08T14:41:11.652Z,96388.00
2022-12-08T14:44:03.586Z,96389.00
2022-12-08T14:47:28.466Z,96388.22
2022-12-08T14:50:40.060Z,96390.44
2022-12-08T14:53:26.134Z,96378.75
2022-12-08T14:56:20.361Z,96384.75
2022-12-08T14:59:12.057Z,96387.34
2022-12-08T15:02:44.449Z,96390.53
2022-12-08T15:05:31.593Z,96379.06
2022-12-08T15:08:17.298Z,96387.28
2022-12-08T15:11:27.475Z,96387.00
2022-12-08T15:14:33.077Z,96389.97
2022-12-08T15:17:30.446Z,96384.06
2022-12-08T15:20:27.587Z,96381.78
2022-12-08T15:23:31.310Z,96381.09
2022-12-08T15:26:22.763Z,96381.63
2022-12-08T15:29:21.637Z,96389.97
2022-12-08T15:32:11.284Z,96380.88
2022-12-08T15:34:56.927Z,96390.81
2022-12-08T15:37:42.618Z,96378.91
2022-12-08T15:40:27.803Z,96382.81
2022-12-08T15:43:13.181Z,96388.78
2022-12-08T15:46:00.121Z,96381.09
2022-12-08T15:48:45.890Z,96392.47
2022-12-08T15:51:36.357Z,96384.56
2022-12-08T15:54:22.023Z,96389.28
2022-12-08T15:57:25.230Z,96394.59
2022-12-08T16:00:51.007Z,96401.72
2022-12-08T16:04:18.615Z,96393.56
2022-12-08T16:07:19.674Z,96402.50
2022-12-08T16:09:44.212Z,96393.88
2022-12-08T16:13:48.029Z,96401.19
2022-12-08T16:16:00.494Z,96400.63
2022-12-08T16:18:48.202Z,96407.53
2022-12-08T16:22:04.779Z,96407.25
2022-12-08T16:24:39.312Z,96408.81
2022-12-08T16:30:33.563Z,96408.44
2022-12-08T16:33:19.167Z,96404.13
2022-12-08T16:36:04.709Z,96405.00
2022-12-08T16:38:50.120Z,96409.28
2022-12-08T16:41:54.184Z,96405.78
2022-12-08T16:44:42.165Z,96407.00
2022-12-08T16:47:27.806Z,96418.28
2022-12-08T16:50:15.566Z,96407.59
2022-12-08T16:53:12.524Z,96414.13
2022-12-08T16:55:58.034Z,96409.44
2022-12-08T16:58:44.507Z,96404.78
2022-12-08T17:01:30.488Z,96408.88
2022-12-08T17:04:31.350Z,96411.34
2022-12-08T17:07:17.609Z,96414.00
2022-12-08T17:10:07.616Z,96409.34
2022-12-08T17:12:54.198Z,96411.63
2022-12-08T17:15:40.261Z,96408.75
2022-12-08T17:18:25.930Z,96418.47
2022-12-08T17:21:13.333Z,96411.22
2022-12-08T17:23:58.783Z,96414.31
2022-12-08T17:26:44.173Z,96412.88
2022-12-08T17:29:33.922Z,96410.63
2022-12-08T17:32:20.143Z,96402.53
2022-12-08T17:35:07.303Z,96403.88
2022-12-08T17:37:53.106Z,96404.19
2022-12-08T17:40:39.179Z,96401.94
2022-12-08T17:43:24.657Z,96411.69
2022-12-08T17:46:10.134Z,96415.25
2022-12-08T17:48:55.769Z,96410.41
2022-12-08T17:51:41.249Z,96409.41
2022-12-08T17:54:28.045Z,96405.22
2022-12-08T17:57:13.941Z,96396.44
2022-12-08T17:59:59.214Z,96385.25
2022-12-08T18:02:44.626Z,96383.63
2022-12-08T18:05:31.339Z,96384.47
2022-12-08T18:08:17.130Z,96389.97
2022-12-08T18:11:04.504Z,96388.06
2022-12-08T18:13:51.497Z,96393.94
2022-12-08T18:16:39.945Z,96384.69
2022-12-08T18:19:26.347Z,96384.88
2022-12-08T18:22:12.371Z,96388.75
2022-12-08T18:24:57.690Z,96386.03
2022-12-08T18:27:44.271Z,96386.72
2022-12-08T18:30:29.860Z,96394.03
2022-12-08T18:33:15.535Z,96394.34
2022-12-08T18:36:01.086Z,96389.81
2022-12-08T18:38:46.478Z,96387.91
2022-12-08T18:41:32.375Z,96391.47
2022-12-08T18:44:18.071Z,96392.78
2022-12-08T18:47:03.643Z,96395.53
2022-12-08T18:49:49.053Z,96389.88
2022-12-08T18:52:35.048Z,96395.38
2022-12-08T18:55:20.581Z,96395.88
2022-12-08T18:58:05.828Z,96393.94
2022-12-08T19:00:51.252Z,96390.38
2022-12-08T19:03:36.440Z,96395.56
2022-12-08T19:06:22.939Z,96388.94
2022-12-08T19:09:12.633Z,96392.53
2022-12-08T19:11:58.465Z,96394.47
2022-12-08T19:14:44.491Z,96387.00
2022-12-08T19:17:30.060Z,96388.31
2022-12-08T19:20:15.405Z,96390.41
2022-12-08T19:23:00.922Z,96391.56
2022-12-08T19:25:46.409Z,96385.88
2022-12-08T19:28:33.000Z,96386.06
2022-12-08T19:31:18.782Z,96384.75
2022-12-08T19:34:05.916Z,96385.38
2022-12-08T19:36:51.517Z,96386.03
2022-12-08T19:39:55.453Z,96383.78
2022-12-08T19:42:59.878Z,96385.06
2022-12-08T19:45:45.237Z,96391.38
2022-12-08T19:48:31.111Z,96393.00
2022-12-08T19:51:16.499Z,96386.53
2022-12-08T19:54:02.313Z,96394.44
2022-12-08T19:56:48.413Z,96389.44
2022-12-08T19:59:34.540Z,96387.97
2022-12-08T20:02:20.356Z,96394.13
2022-12-08T20:05:06.927Z,96393.50
2022-12-08T20:07:55.822Z,96392.84
2022-12-08T20:10:43.656Z,96396.69
2022-12-08T20:13:41.476Z,96397.03
2022-12-08T20:16:26.990Z,96396.38
2022-12-08T20:19:12.588Z,96404.78
2022-12-08T20:21:57.974Z,96402.22
2022-12-08T20:24:43.597Z,96397.34
2022-12-08T20:27:29.224Z,96400.59
2022-12-08T20:30:17.286Z,96405.94
2022-12-08T20:33:02.999Z,96408.88
2022-12-08T20:36:01.756Z,96405.78
2022-12-08T20:38:48.939Z,96408.06
2022-12-08T20:41:38.985Z,96407.09
2022-12-08T20:44:24.740Z,96407.91
2022-12-08T20:47:11.712Z,96411.28
2022-12-08T20:49:57.288Z,96401.25
2022-12-08T20:52:42.466Z,96402.22
2022-12-08T20:55:27.896Z,96397.38
2022-12-08T20:58:13.210Z,96397.88
2022-12-08T21:00:58.527Z,96393.16
2022-12-08T21:03:45.344Z,96394.63
2022-12-08T21:06:31.598Z,96390.91
2022-12-08T21:09:17.252Z,96390.91
2022-12-08T21:12:02.856Z,96395.72
2022-12-08T21:14:48.354Z,96399.78
2022-12-08T21:17:33.979Z,96398.81
2022-12-08T21:20:19.858Z,96402.06
2022-12-08T21:23:05.354Z,96398.31
2022-12-08T21:25:51.190Z,96397.97
2022-12-08T21:28:36.758Z,96402.06
2022-12-08T21:31:22.866Z,96403.66
2022-12-08T21:34:10.200Z,96401.06
2022-12-08T21:36:55.681Z,96400.91
2022-12-08T21:39:41.242Z,96392.16
2022-12-08T21:42:45.015Z,96394.22
2022-12-08T21:45:31.223Z,96404.13
2022-12-08T21:48:16.906Z,96404.78
2022-12-08T21:51:05.499Z,96403.13
2022-12-08T21:53:51.697Z,96409.59
2022-12-08T21:56:37.403Z,96416.06
2022-12-08T21:59:23.002Z,96412.19
2022-12-08T22:02:14.697Z,96418.63
2022-12-08T22:05:03.985Z,96415.72
2022-12-08T22:07:49.937Z,96422.97
2022-12-08T22:10:35.980Z,96413.09
2022-12-08T22:13:21.702Z,96409.19
2022-12-08T22:16:09.999Z,96407.22
2022-12-08T22:18:55.438Z,96397.00
2022-12-08T22:21:40.872Z,96404.59
2022-12-08T22:24:26.708Z,96406.88
2022-12-08T22:27:12.783Z,96403.75
2022-12-08T22:29:58.362Z,96396.44
2022-12-08T22:32:43.976Z,96403.25
2022-12-08T22:35:29.302Z,96406.97
2022-12-08T22:38:14.722Z,96400.81
2022-12-08T22:41:00.446Z,96397.06
2022-12-08T22:43:46.966Z,96391.50
2022-12-08T22:46:32.385Z,96402.34
2022-12-08T22:49:17.776Z,96391.81
2022-12-08T22:52:03.532Z,96387.25
2022-12-08T22:54:49.263Z,96389.53
2022-12-08T22:57:34.646Z,96388.53
2022-12-08T23:00:20.820Z,96380.56
2022-12-08T23:03:06.565Z,96380.22
2022-12-08T23:05:52.610Z,96375.03
2022-12-08T23:08:38.011Z,96377.28
2022-12-08T23:11:26.675Z,96373.53
2022-12-08T23:14:12.487Z,96368.00
2022-12-08T23:16:58.057Z,96363.59
2022-12-08T23:19:43.702Z,96365.41
2022-12-08T23:22:29.954Z,96372.19
2022-12-08T23:25:15.269Z,96363.09
2022-12-08T23:28:00.791Z,96365.88
2022-12-08T23:30:46.265Z,96364.06
2022-12-08T23:33:31.833Z,96369.28
2022-12-08T23:36:18.999Z,96379.28
2022-12-08T23:39:04.780Z,96369.38
2022-12-08T23:41:51.180Z,96360.59
2022-12-08T23:44:36.868Z,96365.47
2022-12-08T23:47:22.539Z,96354.25
2022-12-08T23:50:09.295Z,96354.72
2022-12-08T23:52:55.099Z,96351.97
2022-12-08T23:55:40.575Z,96352.56
2022-12-08T23:58:26.176Z,96353.22
